Time;durP1;ratioP1;P1;durP2;ratioP2;P2;SDS_P1;SDS_P2;PMS_P1;PMS_P2;Temp;Humidity;BMP_temperature;BMP_pressure;BME280_temperature;BME280_humidity;BME280_pressure;Samples;Min_cycle;Max_cycle;Signal;HPM_P1;HPM_P2
2021/09/14 00:00:13;;;;;;;;;;;;;;;;;;5020793;28;19935;-69
2021/09/14 00:02:38;;;;;;;;;;;;;;;;;;5020784;28;19905;-69
2021/09/14 00:05:04;;;;;;;;;;;;;;;;;;5018191;28;19936;-70
2021/09/14 00:07:29;;;;;;;;;;;;;;;;;;5023082;28;19969;-70
2021/09/14 00:09:55;;;;;;;;;;;;;;;;;;5018726;28;19921;-70
2021/09/14 00:12:22;;;;;;;;;;;;;;;;;;5016506;28;20121;-70
2021/09/14 00:14:47;;;;;;;;;;;;;;;;;;5021833;28;19974;-70
2021/09/14 00:17:13;;;;;;;;;;;;;;;;;;5014850;28;19932;-68
2021/09/14 00:19:38;;;;;;;;;;;;;;;;;;5021222;28;20829;-68
2021/09/14 00:22:03;;;;;;;;;;;;;;;;;;5010534;28;19948;-69
2021/09/14 00:24:28;;;;;;;;;;;;;;;;;;5014923;28;19909;-69
2021/09/14 00:26:54;;;;;;;;;;;;;;;;;;5019533;28;19913;-69
2021/09/14 00:29:19;;;;;;;;;;;;;;;;;;5021728;28;19950;-69
2021/09/14 00:31:44;;;;;;;;;;;;;;;;;;5027552;28;20070;-69
2021/09/14 00:34:09;;;;;;;;;;;;;;;;;;5016147;28;19913;-69
2021/09/14 00:36:34;;;;;;;;;;;;;;;;;;5018919;28;19933;-70
2021/09/14 00:39:00;;;;;;;;;;;;;;;;;;5027842;28;19928;-69
2021/09/14 00:41:25;;;;;;;;;;;;;;;;;;5022415;28;19917;-68
2021/09/14 00:43:50;;;;;;;;;;;;;;;;;;5020655;28;19917;-68
2021/09/14 00:46:16;;;;;;;;;;;;;;;;;;5015948;28;19925;-69
2021/09/14 00:48:41;;;;;;;;;;;;;;;;;;5026413;28;19921;-69
2021/09/14 00:51:06;;;;;;;;;;;;;;;;;;5027547;28;19925;-69
2021/09/14 00:53:31;;;;;;;;;;;;;;;;;;5006197;28;19910;-69
2021/09/14 00:55:57;;;;;;;;;;;;;;;;;;5031758;28;19944;-69
2021/09/14 00:58:23;;;;;;;;;;;;;;;;;;5018683;28;19913;-69
2021/09/14 01:00:48;;;;;;;;;;;;;;;;;;5022131;28;20546;-69
2021/09/14 01:03:13;;;;;;;;;;;;;;;;;;5026246;28;19912;-68
2021/09/14 01:05:39;;;;;;;;;;;;;;;;;;5021360;28;19941;-70
2021/09/14 01:08:04;;;;;;;;;;;;;;;;;;5023794;28;19949;-69
2021/09/14 01:10:29;;;;;;;;;;;;;;;;;;5025730;28;19921;-69
2021/09/14 01:12:55;;;;;;;;;;;;;;;;;;5016010;28;19921;-68
2021/09/14 01:15:20;;;;;;;;;;;;;;;;;;5025749;28;19909;-69
2021/09/14 01:17:45;;;;;;;;;;;;;;;;;;5020951;28;19905;-69
2021/09/14 01:20:11;;;;;;;;;;;;;;;;;;5024064;28;19917;-69
2021/09/14 01:22:36;;;;;;;;;;;;;;;;;;5019257;28;19969;-69
2021/09/14 01:25:02;;;;;;;;;;;;;;;;;;5016706;28;19931;-68
2021/09/14 01:27:27;;;;;;;;;;;;;;;;;;5022301;28;20088;-69
2021/09/14 01:32:37;;;;;;;;;;;;;;;;;;5030762;28;19914;-68
2021/09/14 01:35:03;;;;;;;;;;;;;;;;;;5024544;28;20062;-69
2021/09/14 01:37:32;;;;;;;;;;;;;;;;;;5025469;28;20022;-69
2021/09/14 01:39:57;;;;;;;;;;;;;;;;;;5004728;28;19929;-69
2021/09/14 01:42:23;;;;;;;;;;;;;;;;;;5020178;28;19957;-69
2021/09/14 01:44:48;;;;;;;;;;;;;;;;;;5030164;28;19924;-69
2021/09/14 01:47:17;;;;;;;;;;;;;;;;;;5002647;28;19933;-69
2021/09/14 01:49:42;;;;;;;;;;;;;;;;;;5019500;28;19953;-68
2021/09/14 01:52:08;;;;;;;;;;;;;;;;;;5029530;28;20026;-68
2021/09/14 01:54:33;;;;;;;;;;;;;;;;;;5024745;28;19902;-69
2021/09/14 01:56:59;;;;;;;;;;;;;;;;;;5023555;28;19944;-69
2021/09/14 01:59:24;;;;;;;;;;;;;;;;;;5025555;28;19973;-69
2021/09/14 02:02:08;;;;;;;;;;;;;;;;;;5020024;28;19917;-69
2021/09/14 02:07:26;;;;;;;;;;;;;;;;;;5017203;28;20161;-68
2021/09/14 02:24:03;;;;;;;;;;;;;;;;;;5027585;28;19914;-67
2021/09/14 02:58:41;;;;;;;;;;;;;;;;;;5017968;28;19906;-69
2021/09/14 03:01:07;;;;;;;;;;;;;;;;;;5023447;28;19917;-69
2021/09/14 03:03:33;;;;;;;;;;;;;;;;;;5015786;28;19921;-69
2021/09/14 03:05:58;;;;;;;;;;;;;;;;;;5022316;28;19940;-69
2021/09/14 03:08:23;;;;;;;;;;;;;;;;;;5027905;28;19968;-70
2021/09/14 03:10:48;;;;;;;;;;;;;;;;;;5019046;28;19909;-70
2021/09/14 03:13:14;;;;;;;;;;;;;;;;;;5021148;28;19961;-70
2021/09/14 03:15:39;;;;;;;;;;;;;;;;;;5022152;28;19926;-70
2021/09/14 03:18:04;;;;;;;;;;;;;;;;;;5016554;28;19936;-70
2021/09/14 03:20:30;;;;;;;;;;;;;;;;;;5024929;28;19945;-70
2021/09/14 03:22:55;;;;;;;;;;;;;;;;;;5023633;28;19922;-68
2021/09/14 03:25:20;;;;;;;;;;;;;;;;;;5029032;28;19922;-69
2021/09/14 03:27:45;;;;;;;;;;;;;;;;;;5017498;28;19921;-69
2021/09/14 03:30:11;;;;;;;;;;;;;;;;;;5001026;28;19921;-70
2021/09/14 03:32:38;;;;;;;;;;;;;;;;;;5027926;28;20131;-69
2021/09/14 03:35:03;;;;;;;;;;;;;;;;;;5014992;28;19910;-70
2021/09/14 03:37:29;;;;;;;;;;;;;;;;;;5021011;28;19914;-70
2021/09/14 03:39:54;;;;;;;;;;;;;;;;;;5021719;28;19921;-68
2021/09/14 03:42:22;;;;;;;;;;;;;;;;;;5014874;28;19913;-69
2021/09/14 03:44:47;;;;;;;;;;;;;;;;;;5021530;28;20090;-70
2021/09/14 03:47:12;;;;;;;;;;;;;;;;;;5016663;28;19912;-70
2021/09/14 03:49:38;;;;;;;;;;;;;;;;;;5020389;28;19976;-69
2021/09/14 03:52:04;;;;;;;;;;;;;;;;;;5022378;28;19914;-70
2021/09/14 03:54:30;;;;;;;;;;;;;;;;;;5022533;28;20106;-68
2021/09/14 03:56:55;;;;;;;;;;;;;;;;;;5022356;28;19921;-69
2021/09/14 03:59:22;;;;;;;;;;;;;;;;;;5023390;28;19984;-69
2021/09/14 04:01:53;;;;;;;;;;;;;;;;;;5028953;28;20088;-69
2021/09/14 04:04:24;;;;;;;;;;;;;;;;;;5005677;28;19913;-70
2021/09/14 04:07:09;;;;;;;;;;;;;;;;;;5015142;28;19979;-69
2021/09/14 04:09:37;;;;;;;;;;;;;;;;;;5027773;28;19914;-70
2021/09/14 04:12:09;;;;;;;;;;;;;;;;;;5015880;28;19910;-70
2021/09/14 04:14:34;;;;;;;;;;;;;;;;;;5014223;28;19929;-69
2021/09/14 04:17:00;;;;;;;;;;;;;;;;;;5024158;28;19949;-71
2021/09/14 04:19:28;;;;;;;;;;;;;;;;;;5014652;28;19902;-70
2021/09/14 04:21:55;;;;;;;;;;;;;;;;;;5030898;28;19937;-70
2021/09/14 04:24:26;;;;;;;;;;;;;;;;;;5019936;28;19926;-69
2021/09/14 04:26:52;;;;;;;;;;;;;;;;;;5019484;28;19943;-70
2021/09/14 04:29:17;;;;;;;;;;;;;;;;;;5031740;28;20008;-70
2021/09/14 04:31:43;;;;;;;;;;;;;;;;;;5019528;28;20232;-70
2021/09/14 04:34:08;;;;;;;;;;;;;;;;;;5009177;28;19902;-70
2021/09/14 04:36:33;;;;;;;;;;;;;;;;;;5004118;28;19913;-70
2021/09/14 04:38:59;;;;;;;;;;;;;;;;;;5019315;28;19913;-69
2021/09/14 04:41:27;;;;;;;;;;;;;;;;;;5021820;28;19928;-70
2021/09/14 04:43:53;;;;;;;;;;;;;;;;;;5025419;28;19937;-71
2021/09/14 04:46:18;;;;;;;;;;;;;;;;;;5024975;28;19992;-70
2021/09/14 04:48:43;;;;;;;;;;;;;;;;;;5026216;28;19913;-71
2021/09/14 04:51:08;;;;;;;;;;;;;;;;;;5019870;28;19967;-71
2021/09/14 04:53:34;;;;;;;;;;;;;;;;;;5014584;28;19906;-71
2021/09/14 04:55:59;;;;;;;;;;;;;;;;;;5019838;28;19917;-70
2021/09/14 04:58:24;;;;;;;;;;;;;;;;;;5031457;28;20016;-71
2021/09/14 05:00:50;;;;;;;;;;;;;;;;;;5017776;28;19974;-71
2021/09/14 05:03:18;;;;;;;;;;;;;;;;;;5024701;28;19905;-70
2021/09/14 05:05:43;;;;;;;;;;;;;;;;;;5027285;28;19905;-71
2021/09/14 05:08:10;;;;;;;;;;;;;;;;;;5019116;28;19925;-69
2021/09/14 05:10:36;;;;;;;;;;;;;;;;;;5022129;28;20023;-71
2021/09/14 05:13:03;;;;;;;;;;;;;;;;;;5023148;28;19922;-71
2021/09/14 05:15:28;;;;;;;;;;;;;;;;;;5006571;28;19910;-71
2021/09/14 05:18:10;;;;;;;;;;;;;;;;;;5030811;28;19912;-71
2021/09/14 05:20:45;;;;;;;;;;;;;;;;;;5019260;28;19906;-72
2021/09/14 05:23:29;;;;;;;;;;;;;;;;;;5019298;28;19933;-70
2021/09/14 05:25:54;;;;;;;;;;;;;;;;;;5025196;28;19968;-69
2021/09/14 05:28:20;;;;;;;;;;;;;;;;;;5018767;28;19917;-70
2021/09/14 05:30:45;;;;;;;;;;;;;;;;;;5021574;28;20007;-71
2021/09/14 05:33:11;;;;;;;;;;;;;;;;;;5022778;28;19925;-70
2021/09/14 05:35:37;;;;;;;;;;;;;;;;;;5016171;28;19906;-71
2021/09/14 05:38:03;;;;;;;;;;;;;;;;;;5023246;28;19996;-71
2021/09/14 05:40:29;;;;;;;;;;;;;;;;;;5016679;28;19908;-71
2021/09/14 05:42:56;;;;;;;;;;;;;;;;;;5018926;28;19941;-71
2021/09/14 05:45:22;;;;;;;;;;;;;;;;;;5024072;28;19905;-71
2021/09/14 05:47:47;;;;;;;;;;;;;;;;;;5024151;28;19910;-70
2021/09/14 05:50:15;;;;;;;;;;;;;;;;;;5023764;28;19913;-71
2021/09/14 05:52:42;;;;;;;;;;;;;;;;;;5023989;28;20045;-70
2021/09/14 05:55:08;;;;;;;;;;;;;;;;;;5019890;28;19997;-70
2021/09/14 05:57:33;;;;;;;;;;;;;;;;;;5024052;28;19967;-71
2021/09/14 05:59:58;;;;;;;;;;;;;;;;;;5019809;28;19906;-71
2021/09/14 06:02:23;;;;;;;;;;;;;;;;;;5026052;28;19906;-71
2021/09/14 06:04:52;;;;;;;;;;;;;;;;;;5004050;28;19981;-71
2021/09/14 06:07:19;;;;;;;;;;;;;;;;;;5018992;28;19901;-70
2021/09/14 06:09:45;;;;;;;;;;;;;;;;;;5022743;28;19925;-71
2021/09/14 06:12:12;;;;;;;;;;;;;;;;;;5018565;28;19921;-71
2021/09/14 06:14:38;;;;;;;;;;;;;;;;;;5011808;28;19981;-70
2021/09/14 06:17:03;;;;;;;;;;;;;;;;;;5015508;28;19936;-70
2021/09/14 06:19:29;;;;;;;;;;;;;;;;;;5005654;28;19922;-71
2021/09/14 06:21:54;;;;;;;;;;;;;;;;;;5021525;28;19916;-71
2021/09/14 06:24:20;;;;;;;;;;;;;;;;;;4999711;28;20009;-72
2021/09/14 06:26:46;;;;;;;;;;;;;;;;;;5026677;28;19906;-72
2021/09/14 06:29:11;;;;;;;;;;;;;;;;;;5014157;28;19920;-73
2021/09/14 06:31:39;;;;;;;;;;;;;;;;;;5013932;28;19922;-72
2021/09/14 06:34:04;;;;;;;;;;;;;;;;;;5022833;28;19949;-72
2021/09/14 06:36:30;;;;;;;;;;;;;;;;;;4999216;28;19906;-72
2021/09/14 06:38:56;;;;;;;;;;;;;;;;;;5022161;28;19991;-72
2021/09/14 06:41:22;;;;;;;;;;;;;;;;;;5022016;28;19906;-73
2021/09/14 06:43:47;;;;;;;;;;;;;;;;;;5017915;28;19906;-69
2021/09/14 06:46:15;;;;;;;;;;;;;;;;;;5018474;28;19989;-72
2021/09/14 06:48:46;;;;;;;;;;;;;;;;;;5016358;28;19957;-72
2021/09/14 06:51:11;;;;;;;;;;;;;;;;;;5019720;28;19925;-70
2021/09/14 06:53:36;;;;;;;;;;;;;;;;;;5016544;28;19914;-69
2021/09/14 06:56:02;;;;;;;;;;;;;;;;;;5016887;28;19964;-70
2021/09/14 06:58:34;;;;;;;;;;;;;;;;;;5026444;28;19905;-69
2021/09/14 07:00:59;;;;;;;;;;;;;;;;;;5019049;28;20021;-70
2021/09/14 07:03:25;;;;;;;;;;;;;;;;;;5019195;28;19905;-70
2021/09/14 07:05:50;;;;;;;;;;;;;;;;;;5015458;28;19981;-70
2021/09/14 07:08:15;;;;;;;;;;;;;;;;;;5014993;28;19940;-70
2021/09/14 07:10:43;;;;;;;;;;;;;;;;;;5024149;28;19922;-72
2021/09/14 07:13:08;;;;;;;;;;;;;;;;;;5016927;28;19933;-72
2021/09/14 07:15:34;;;;;;;;;;;;;;;;;;5022708;28;19921;-71
2021/09/14 07:17:59;;;;;;;;;;;;;;;;;;5015775;28;19937;-72
2021/09/14 07:20:25;;;;;;;;;;;;;;;;;;4994379;28;19909;-72
2021/09/14 07:22:50;;;;;;;;;;;;;;;;;;5000382;28;19941;-72
2021/09/14 07:25:16;;;;;;;;;;;;;;;;;;4996604;28;19906;-72
2021/09/14 07:27:41;;;;;;;;;;;;;;;;;;5004731;28;19973;-71
2021/09/14 07:30:06;;;;;;;;;;;;;;;;;;4995545;28;19914;-71
2021/09/14 07:32:31;;;;;;;;;;;;;;;;;;4995588;28;20068;-71
2021/09/14 07:34:57;;;;;;;;;;;;;;;;;;5007135;28;19906;-72
2021/09/14 07:37:22;;;;;;;;;;;;;;;;;;4997857;28;19917;-71
2021/09/14 07:39:47;;;;;;;;;;;;;;;;;;5002133;28;19941;-70
2021/09/14 07:42:12;;;;;;;;;;;;;;;;;;4985600;28;19910;-71
2021/09/14 07:44:38;;;;;;;;;;;;;;;;;;4994249;28;19988;-71
2021/09/14 07:47:03;;;;;;;;;;;;;;;;;;4999495;28;19907;-71
2021/09/14 07:49:28;;;;;;;;;;;;;;;;;;4995111;28;19921;-72
2021/09/14 07:51:53;;;;;;;;;;;;;;;;;;4998275;28;19926;-72
2021/09/14 07:54:22;;;;;;;;;;;;;;;;;;4996123;28;19971;-70
2021/09/14 07:56:47;;;;;;;;;;;;;;;;;;5000557;28;19937;-72
2021/09/14 07:59:12;;;;;;;;;;;;;;;;;;5004120;28;19914;-72
2021/09/14 08:01:38;;;;;;;;;;;;;;;;;;4999257;28;19909;-72
2021/09/14 08:04:03;;;;;;;;;;;;;;;;;;4999596;28;19906;-73
2021/09/14 08:06:29;;;;;;;;;;;;;;;;;;5005536;28;19921;-72
2021/09/14 08:08:54;;;;;;;;;;;;;;;;;;4997313;28;19913;-70
2021/09/14 08:11:19;;;;;;;;;;;;;;;;;;5006248;28;19929;-72
2021/09/14 08:13:48;;;;;;;;;;;;;;;;;;4999257;28;19914;-72
2021/09/14 08:16:13;;;;;;;;;;;;;;;;;;4998724;28;19917;-72
2021/09/14 08:18:38;;;;;;;;;;;;;;;;;;5004097;28;20018;-73
2021/09/14 08:21:06;;;;;;;;;;;;;;;;;;5001328;28;19906;-70
2021/09/14 08:23:32;;;;;;;;;;;;;;;;;;5002724;28;19902;-70
2021/09/14 08:25:58;;;;;;;;;;;;;;;;;;5004859;28;19970;-70
2021/09/14 08:28:23;;;;;;;;;;;;;;;;;;4997637;28;19937;-70
2021/09/14 08:30:48;;;;;;;;;;;;;;;;;;5002889;28;19910;-71
2021/09/14 08:33:13;;;;;;;;;;;;;;;;;;4994720;28;19906;-70
2021/09/14 08:35:39;;;;;;;;;;;;;;;;;;5003395;28;19906;-71
2021/09/14 08:38:04;;;;;;;;;;;;;;;;;;4991493;28;19914;-69
2021/09/14 08:40:29;;;;;;;;;;;;;;;;;;5001593;28;19957;-69
2021/09/14 08:42:56;;;;;;;;;;;;;;;;;;5009424;28;19906;-69
2021/09/14 08:45:21;;;;;;;;;;;;;;;;;;4989322;28;19918;-69
2021/09/14 08:47:47;;;;;;;;;;;;;;;;;;4998153;28;19941;-69
2021/09/14 08:50:12;;;;;;;;;;;;;;;;;;4990084;28;19941;-68
2021/09/14 08:52:37;;;;;;;;;;;;;;;;;;4991382;28;19975;-69
2021/09/14 08:55:02;;;;;;;;;;;;;;;;;;4997776;28;19925;-69
2021/09/14 08:57:28;;;;;;;;;;;;;;;;;;4997856;28;19914;-66
2021/09/14 08:59:53;;;;;;;;;;;;;;;;;;5003982;28;19925;-68
2021/09/14 09:02:20;;;;;;;;;;;;;;;;;;4996705;28;19952;-68
2021/09/14 09:04:46;;;;;;;;;;;;;;;;;;4999047;28;19906;-68
2021/09/14 09:07:11;;;;;;;;;;;;;;;;;;4995240;28;20017;-69
2021/09/14 09:09:36;;;;;;;;;;;;;;;;;;4997426;28;19922;-69
2021/09/14 09:12:02;;;;;;;;;;;;;;;;;;5001483;28;19902;-68
2021/09/14 09:14:27;;;;;;;;;;;;;;;;;;5000033;28;20013;-67
2021/09/14 09:16:52;;;;;;;;;;;;;;;;;;4997203;28;20331;-67
2021/09/14 09:19:18;;;;;;;;;;;;;;;;;;5009050;28;19906;-69
2021/09/14 09:21:43;;;;;;;;;;;;;;;;;;4998534;28;19912;-68
2021/09/14 09:24:08;;;;;;;;;;;;;;;;;;5004049;28;19914;-69
2021/09/14 09:26:34;;;;;;;;;;;;;;;;;;4997968;28;19932;-68
2021/09/14 09:28:59;;;;;;;;;;;;;;;;;;4999036;28;19914;-69
2021/09/14 09:31:24;;;;;;;;;;;;;;;;;;5005840;28;19913;-69
2021/09/14 09:33:49;;;;;;;;;;;;;;;;;;4999881;28;19910;-69
2021/09/14 09:36:15;;;;;;;;;;;;;;;;;;5004699;28;19906;-68
2021/09/14 09:38:40;;;;;;;;;;;;;;;;;;4995004;28;19949;-68
2021/09/14 09:41:05;;;;;;;;;;;;;;;;;;4995446;28;19925;-68
2021/09/14 09:43:30;;;;;;;;;;;;;;;;;;5044792;28;19924;-68
2021/09/14 09:45:56;;;;;;;;;;;;;;;;;;5038540;28;19905;-69
2021/09/14 09:48:21;;;;;;;;;;;;;;;;;;5040966;28;19940;-68
2021/09/14 09:50:46;;;;;;;;;;;;;;;;;;5036243;28;19913;-69
2021/09/14 09:53:11;;;;;;;;;;;;;;;;;;5052387;28;19921;-68
2021/09/14 09:55:38;;;;;;;;;;;;;;;;;;5044144;28;19956;-69
2021/09/14 09:58:03;;;;;;;;;;;;;;;;;;5038455;28;19947;-67
2021/09/14 10:00:29;;;;;;;;;;;;;;;;;;5041804;28;20116;-68
2021/09/14 10:02:54;;;;;;;;;;;;;;;;;;5033190;28;19948;-69
2021/09/14 10:05:19;;;;;;;;;;;;;;;;;;5038262;28;19914;-69
2021/09/14 10:07:44;;;;;;;;;;;;;;;;;;5040460;28;19971;-69
2021/09/14 10:10:10;;;;;;;;;;;;;;;;;;5033250;28;19996;-69
2021/09/14 10:12:35;;;;;;;;;;;;;;;;;;5030890;28;19913;-70
2021/09/14 10:15:00;;;;;;;;;;;;;;;;;;5035049;28;19924;-69
2021/09/14 10:17:26;;;;;;;;;;;;;;;;;;5034702;28;19922;-69
2021/09/14 10:19:51;;;;;;;;;;;;;;;;;;5040407;28;19924;-68
2021/09/14 10:22:16;;;;;;;;;;;;;;;;;;5068305;28;20104;-67
2021/09/14 10:24:41;;;;;;;;;;;;;;;;;;5040904;28;19905;-68
2021/09/14 10:27:07;;;;;;;;;;;;;;;;;;5036574;28;19905;-69
2021/09/14 10:29:32;;;;;;;;;;;;;;;;;;5066732;28;20045;-69
2021/09/14 10:31:57;;;;;;;;;;;;;;;;;;5038044;28;19951;-69
2021/09/14 10:34:22;;;;;;;;;;;;;;;;;;5036242;28;19913;-70
2021/09/14 10:36:50;;;;;;;;;;;;;;;;;;5042004;28;19913;-70
2021/09/14 10:39:15;;;;;;;;;;;;;;;;;;5035399;28;19902;-67
2021/09/14 10:41:40;;;;;;;;;;;;;;;;;;5050115;28;20317;-68
2021/09/14 10:44:08;;;;;;;;;;;;;;;;;;5053399;28;20210;-69
2021/09/14 10:46:33;;;;;;;;;;;;;;;;;;5034764;28;19918;-69
2021/09/14 10:48:59;;;;;;;;;;;;;;;;;;5040318;28;20017;-69
2021/09/14 10:51:24;;;;;;;;;;;;;;;;;;5035947;28;19905;-70
2021/09/14 10:53:49;;;;;;;;;;;;;;;;;;5037803;28;19913;-69
2021/09/14 10:56:14;;;;;;;;;;;;;;;;;;5072003;28;19913;-66
2021/09/14 10:58:40;;;;;;;;;;;;;;;;;;5035315;28;19925;-69
2021/09/14 11:01:05;;;;;;;;;;;;;;;;;;5039963;28;19912;-69
2021/09/14 11:03:30;;;;;;;;;;;;;;;;;;5035021;28;19925;-70
2021/09/14 11:05:56;;;;;;;;;;;;;;;;;;5033886;28;19913;-69
2021/09/14 11:08:21;;;;;;;;;;;;;;;;;;5040562;28;19924;-69
2021/09/14 11:10:46;;;;;;;;;;;;;;;;;;5034255;28;19913;-70
2021/09/14 11:13:11;;;;;;;;;;;;;;;;;;5041049;28;19905;-69
2021/09/14 11:15:36;;;;;;;;;;;;;;;;;;5036754;28;19913;-70
2021/09/14 11:18:02;;;;;;;;;;;;;;;;;;5070408;28;19905;-69
2021/09/14 11:20:29;;;;;;;;;;;;;;;;;;5042061;28;19936;-70
2021/09/14 11:22:57;;;;;;;;;;;;;;;;;;5035001;28;20111;-72
2021/09/14 11:25:22;;;;;;;;;;;;;;;;;;5039196;28;19992;-72
2021/09/14 11:27:50;;;;;;;;;;;;;;;;;;5034414;28;19913;-71
2021/09/14 11:30:15;;;;;;;;;;;;;;;;;;5036663;28;19960;-72
2021/09/14 11:32:44;;;;;;;;;;;;;;;;;;5042002;28;19928;-72
2021/09/14 11:41:28;;;;;;;;;;;;;;;;;;5038975;28;19912;-69
2021/09/14 11:43:56;;;;;;;;;;;;;;;;;;5038157;28;19906;-68
2021/09/14 11:46:25;;;;;;;;;;;;;;;;;;5039895;28;19924;-69
2021/09/14 11:48:50;;;;;;;;;;;;;;;;;;5038441;28;19909;-69
2021/09/14 11:51:15;;;;;;;;;;;;;;;;;;5027057;28;19909;-69
2021/09/14 11:53:40;;;;;;;;;;;;;;;;;;5043134;28;19925;-67
2021/09/14 11:56:06;;;;;;;;;;;;;;;;;;5034256;28;19918;-69
2021/09/14 11:58:33;;;;;;;;;;;;;;;;;;5034624;28;19913;-69
2021/09/14 12:01:01;;;;;;;;;;;;;;;;;;5040128;28;19905;-70
2021/09/14 12:03:26;;;;;;;;;;;;;;;;;;5052415;28;19924;-69
2021/09/14 12:05:54;;;;;;;;;;;;;;;;;;5074294;28;19905;-69
2021/09/14 12:08:19;;;;;;;;;;;;;;;;;;5049545;28;19924;-70
2021/09/14 12:10:44;;;;;;;;;;;;;;;;;;5036514;28;19909;-69
2021/09/14 12:13:12;;;;;;;;;;;;;;;;;;5039491;28;19968;-70
2021/09/14 12:15:37;;;;;;;;;;;;;;;;;;5032999;28;20205;-71
2021/09/14 12:18:02;;;;;;;;;;;;;;;;;;5054530;28;19913;-68
2021/09/14 12:20:27;;;;;;;;;;;;;;;;;;5034329;28;19932;-69
2021/09/14 12:22:55;;;;;;;;;;;;;;;;;;5068052;28;20138;-70
2021/09/14 12:25:20;;;;;;;;;;;;;;;;;;5072562;28;19921;-70
2021/09/14 12:27:45;;;;;;;;;;;;;;;;;;5036848;28;20088;-71
2021/09/14 12:30:10;;;;;;;;;;;;;;;;;;5040165;28;19979;-69
2021/09/14 12:32:36;;;;;;;;;;;;;;;;;;5053072;28;19921;-70
2021/09/14 12:35:01;;;;;;;;;;;;;;;;;;5037837;28;19943;-67
2021/09/14 12:37:26;;;;;;;;;;;;;;;;;;5043445;28;20278;-67
2021/09/14 12:39:52;;;;;;;;;;;;;;;;;;5033745;28;19961;-69
2021/09/14 12:42:17;;;;;;;;;;;;;;;;;;5069858;28;19905;-70
2021/09/14 12:44:42;;;;;;;;;;;;;;;;;;5056672;28;19905;-70
2021/09/14 12:47:10;;;;;;;;;;;;;;;;;;5039507;28;19944;-70
2021/09/14 12:49:35;;;;;;;;;;;;;;;;;;5041056;28;19940;-71
2021/09/14 12:52:00;;;;;;;;;;;;;;;;;;5055675;28;20261;-71
2021/09/14 12:54:25;;;;;;;;;;;;;;;;;;5042200;28;20019;-70
2021/09/14 12:56:51;;;;;;;;;;;;;;;;;;5036365;28;20139;-69
2021/09/14 12:59:16;;;;;;;;;;;;;;;;;;5041082;28;19906;-70
2021/09/14 13:01:41;;;;;;;;;;;;;;;;;;5050547;28;19940;-69
2021/09/14 13:04:06;;;;;;;;;;;;;;;;;;5036726;28;19901;-71
2021/09/14 13:06:32;;;;;;;;;;;;;;;;;;5042809;28;19912;-69
2021/09/14 13:08:57;;;;;;;;;;;;;;;;;;5042689;28;19913;-70
2021/09/14 13:11:22;;;;;;;;;;;;;;;;;;5055069;28;19905;-69
2021/09/14 13:16:31;;;;;;;;;;;;;;;;;;5040048;28;19921;-67
2021/09/14 13:18:56;;;;;;;;;;;;;;;;;;5045855;28;19981;-68
2021/09/14 13:21:22;;;;;;;;;;;;;;;;;;5043149;28;20003;-69
2021/09/14 13:23:51;;;;;;;;;;;;;;;;;;5039803;28;19925;-69
2021/09/14 13:26:16;;;;;;;;;;;;;;;;;;5045398;28;20130;-69
2021/09/14 13:28:41;;;;;;;;;;;;;;;;;;5040115;28;19909;-69
2021/09/14 13:31:08;;;;;;;;;;;;;;;;;;5071723;28;19925;-68
2021/09/14 13:33:33;;;;;;;;;;;;;;;;;;5078086;28;19933;-69
2021/09/14 13:35:58;;;;;;;;;;;;;;;;;;5036749;28;19906;-69
2021/09/14 13:38:23;;;;;;;;;;;;;;;;;;5061737;28;19932;-69
2021/09/14 13:40:51;;;;;;;;;;;;;;;;;;5039218;28;19928;-69
2021/09/14 13:43:33;;;;;;;;;;;;;;;;;;5039431;28;19913;-69
2021/09/14 13:46:14;;;;;;;;;;;;;;;;;;5043083;28;19973;-69
2021/09/14 13:48:39;;;;;;;;;;;;;;;;;;5038829;28;19964;-69
2021/09/14 13:51:04;;;;;;;;;;;;;;;;;;5035147;28;19905;-69
2021/09/14 13:53:30;;;;;;;;;;;;;;;;;;5029801;28;19913;-70
2021/09/14 13:55:55;;;;;;;;;;;;;;;;;;5066575;28;19905;-69
2021/09/14 13:58:20;;;;;;;;;;;;;;;;;;5058986;28;19948;-68
2021/09/14 14:00:45;;;;;;;;;;;;;;;;;;5038277;28;19912;-69
2021/09/14 14:03:11;;;;;;;;;;;;;;;;;;5038719;28;19960;-69
2021/09/14 14:05:36;;;;;;;;;;;;;;;;;;5059601;28;20068;-69
2021/09/14 14:08:03;;;;;;;;;;;;;;;;;;5037697;28;19913;-69
2021/09/14 14:10:29;;;;;;;;;;;;;;;;;;5043850;28;19914;-69
2021/09/14 14:12:54;;;;;;;;;;;;;;;;;;5038868;28;19952;-66
2021/09/14 14:15:19;;;;;;;;;;;;;;;;;;5038463;28;19997;-68
2021/09/14 14:17:44;;;;;;;;;;;;;;;;;;5044242;28;19933;-68
2021/09/14 14:20:10;;;;;;;;;;;;;;;;;;5039052;28;19913;-69
2021/09/14 14:22:35;;;;;;;;;;;;;;;;;;5059245;28;19905;-69
2021/09/14 14:25:00;;;;;;;;;;;;;;;;;;5038141;28;19909;-69
2021/09/14 14:27:26;;;;;;;;;;;;;;;;;;5071487;28;19906;-69
2021/09/14 14:29:51;;;;;;;;;;;;;;;;;;5073824;28;19997;-69
2021/09/14 14:32:16;;;;;;;;;;;;;;;;;;5038663;28;19905;-69
2021/09/14 14:34:41;;;;;;;;;;;;;;;;;;5042651;28;19909;-69
2021/09/14 14:37:06;;;;;;;;;;;;;;;;;;5036511;28;19993;-67
2021/09/14 14:39:32;;;;;;;;;;;;;;;;;;5067857;28;19921;-69
2021/09/14 14:41:57;;;;;;;;;;;;;;;;;;5041868;28;19960;-69
2021/09/14 14:44:22;;;;;;;;;;;;;;;;;;5035510;28;19932;-68
2021/09/14 14:46:47;;;;;;;;;;;;;;;;;;5041725;28;19913;-69
2021/09/14 14:49:13;;;;;;;;;;;;;;;;;;5041558;28;19932;-70
2021/09/14 14:51:41;;;;;;;;;;;;;;;;;;5036362;28;19932;-69
2021/09/14 14:54:06;;;;;;;;;;;;;;;;;;5041566;28;19905;-68
2021/09/14 14:56:31;;;;;;;;;;;;;;;;;;5039101;28;19989;-69
2021/09/14 14:58:56;;;;;;;;;;;;;;;;;;5057552;28;19912;-68
2021/09/14 15:01:22;;;;;;;;;;;;;;;;;;5037795;28;19906;-69
2021/09/14 15:03:47;;;;;;;;;;;;;;;;;;5050112;28;19944;-69
2021/09/14 15:06:12;;;;;;;;;;;;;;;;;;5072807;28;19913;-68
2021/09/14 15:08:37;;;;;;;;;;;;;;;;;;5040000;28;19960;-68
2021/09/14 15:11:03;;;;;;;;;;;;;;;;;;5041155;28;19917;-69
2021/09/14 15:13:28;;;;;;;;;;;;;;;;;;5042504;28;19913;-69
2021/09/14 15:15:54;;;;;;;;;;;;;;;;;;5038949;28;20059;-69
2021/09/14 15:18:19;;;;;;;;;;;;;;;;;;5043716;28;20001;-68
2021/09/14 15:20:44;;;;;;;;;;;;;;;;;;5035989;28;20284;-68
2021/09/14 15:23:11;;;;;;;;;;;;;;;;;;5042463;28;19905;-68
2021/09/14 15:25:36;;;;;;;;;;;;;;;;;;5036921;28;19928;-69
2021/09/14 15:28:01;;;;;;;;;;;;;;;;;;5037162;28;20176;-69
2021/09/14 15:30:26;;;;;;;;;;;;;;;;;;5042232;28;19917;-69
2021/09/14 15:32:52;;;;;;;;;;;;;;;;;;5071462;28;19906;-69
2021/09/14 15:35:17;;;;;;;;;;;;;;;;;;5041235;28;19905;-69
2021/09/14 15:37:42;;;;;;;;;;;;;;;;;;5033652;28;19905;-66
2021/09/14 15:40:07;;;;;;;;;;;;;;;;;;5035700;28;20875;-67
2021/09/14 15:42:32;;;;;;;;;;;;;;;;;;5040316;28;19926;-68
2021/09/14 15:44:58;;;;;;;;;;;;;;;;;;5035322;28;19905;-68
2021/09/14 15:47:24;;;;;;;;;;;;;;;;;;5074956;28;19906;-69
2021/09/14 15:49:49;;;;;;;;;;;;;;;;;;5037720;28;19921;-69
2021/09/14 15:52:14;;;;;;;;;;;;;;;;;;5052982;28;20112;-68
2021/09/14 15:54:39;;;;;;;;;;;;;;;;;;5047374;28;19913;-68
2021/09/14 15:57:04;;;;;;;;;;;;;;;;;;5053724;28;19975;-69
2021/09/14 15:59:30;;;;;;;;;;;;;;;;;;5045723;28;19921;-68
2021/09/14 16:01:55;;;;;;;;;;;;;;;;;;5069811;28;19905;-68
2021/09/14 16:04:23;;;;;;;;;;;;;;;;;;5037913;28;19914;-68
2021/09/14 16:06:48;;;;;;;;;;;;;;;;;;5042519;28;19961;-68
2021/09/14 16:09:14;;;;;;;;;;;;;;;;;;5038793;28;19980;-68
2021/09/14 16:11:41;;;;;;;;;;;;;;;;;;5057826;28;20128;-69
2021/09/14 16:14:06;;;;;;;;;;;;;;;;;;5036608;28;19927;-67
2021/09/14 16:16:31;;;;;;;;;;;;;;;;;;5072630;28;20167;-68
2021/09/14 16:18:56;;;;;;;;;;;;;;;;;;5047906;28;19913;-68
2021/09/14 16:21:24;;;;;;;;;;;;;;;;;;5043878;28;19974;-68
2021/09/14 16:23:49;;;;;;;;;;;;;;;;;;5061233;28;19929;-68
2021/09/14 16:26:14;;;;;;;;;;;;;;;;;;5071645;28;19928;-68
2021/09/14 16:28:39;;;;;;;;;;;;;;;;;;5040429;28;19905;-69
2021/09/14 16:31:05;;;;;;;;;;;;;;;;;;5046847;28;19928;-66
2021/09/14 16:33:30;;;;;;;;;;;;;;;;;;5040537;28;19932;-66
2021/09/14 16:35:59;;;;;;;;;;;;;;;;;;5042845;28;19932;-70
2021/09/14 16:38:24;;;;;;;;;;;;;;;;;;5039453;28;19919;-68
2021/09/14 16:40:49;;;;;;;;;;;;;;;;;;5040309;28;19913;-68
2021/09/14 16:43:15;;;;;;;;;;;;;;;;;;5044698;28;20116;-68
2021/09/14 16:45:40;;;;;;;;;;;;;;;;;;5033376;28;19906;-67
2021/09/14 16:48:05;;;;;;;;;;;;;;;;;;5058169;28;19980;-69
2021/09/14 16:50:30;;;;;;;;;;;;;;;;;;5039090;28;19928;-70
2021/09/14 16:52:56;;;;;;;;;;;;;;;;;;5039682;28;19906;-70
2021/09/14 16:55:21;;;;;;;;;;;;;;;;;;5043617;28;20218;-70
2021/09/14 16:57:47;;;;;;;;;;;;;;;;;;5032194;28;19931;-71
2021/09/14 17:00:14;;;;;;;;;;;;;;;;;;5075014;28;19913;-71
2021/09/14 17:02:39;;;;;;;;;;;;;;;;;;5040655;28;19952;-67
2021/09/14 17:05:07;;;;;;;;;;;;;;;;;;5042047;28;19925;-68
2021/09/14 17:07:32;;;;;;;;;;;;;;;;;;5051273;28;19925;-69
2021/09/14 17:09:58;;;;;;;;;;;;;;;;;;5038951;28;20018;-69
2021/09/14 17:12:24;;;;;;;;;;;;;;;;;;5045614;28;19905;-70
2021/09/14 17:14:50;;;;;;;;;;;;;;;;;;5044393;28;20001;-66
2021/09/14 17:17:15;;;;;;;;;;;;;;;;;;5042694;28;19907;-67
2021/09/14 17:19:40;;;;;;;;;;;;;;;;;;5043230;28;20009;-69
2021/09/14 17:22:05;;;;;;;;;;;;;;;;;;5054624;28;19917;-69
2021/09/14 17:24:30;;;;;;;;;;;;;;;;;;5044190;28;19905;-68
2021/09/14 17:26:56;;;;;;;;;;;;;;;;;;5037099;28;19913;-69
2021/09/14 17:29:21;;;;;;;;;;;;;;;;;;5040793;28;19933;-69
2021/09/14 17:31:46;;;;;;;;;;;;;;;;;;5045195;28;19913;-69
2021/09/14 17:34:11;;;;;;;;;;;;;;;;;;5055216;28;19913;-69
2021/09/14 17:36:39;;;;;;;;;;;;;;;;;;5060961;28;20227;-70